createdAt,value
2022-07-25T00:01:20.650Z,81.45
2022-07-25T00:03:47.678Z,82.08
2022-07-25T00:06:17.837Z,81.79
2022-07-25T00:08:44.976Z,82.03
2022-07-25T00:11:11.837Z,82.16
2022-07-25T00:13:38.661Z,83.75
2022-07-25T00:16:05.796Z,83.02
2022-07-25T00:18:32.678Z,82.87
2022-07-25T00:20:59.525Z,83.49
2022-07-25T00:23:26.410Z,83.11
2022-07-25T00:25:53.272Z,82.43
2022-07-25T00:28:20.079Z,83.92
2022-07-25T00:30:47.047Z,83.69
2022-07-25T00:33:13.928Z,82.65
2022-07-25T00:35:40.786Z,84.00
2022-07-25T00:38:07.628Z,83.18
2022-07-25T00:40:35.123Z,83.80
2022-07-25T00:43:01.958Z,85.30
2022-07-25T00:45:29.181Z,85.25
2022-07-25T00:47:56.113Z,85.17
2022-07-25T00:50:22.949Z,85.14
2022-07-25T00:52:49.913Z,86.24
2022-07-25T00:55:16.862Z,86.38
2022-07-25T00:57:43.710Z,86.40
2022-07-25T01:00:12.512Z,86.70
2022-07-25T01:02:39.494Z,85.91
2022-07-25T01:05:06.689Z,86.02
2022-07-25T01:07:36.581Z,85.36
2022-07-25T01:10:03.830Z,85.84
2022-07-25T01:12:30.756Z,85.50
2022-07-25T01:14:57.810Z,85.59
2022-07-25T01:17:25.040Z,85.63
2022-07-25T01:19:51.869Z,86.07
2022-07-25T01:22:18.739Z,85.27
2022-07-25T01:24:45.562Z,86.28
2022-07-25T01:27:17.514Z,85.65
2022-07-25T01:29:44.501Z,85.12
2022-07-25T01:32:12.013Z,85.59
2022-07-25T01:34:38.844Z,85.62
2022-07-25T01:37:05.686Z,85.69
2022-07-25T01:39:32.529Z,85.42
2022-07-25T01:41:59.387Z,86.41
2022-07-25T01:44:26.254Z,87.11
2022-07-25T01:46:53.163Z,87.19
2022-07-25T01:49:20.166Z,86.92
2022-07-25T01:51:47.101Z,87.43
2022-07-25T01:54:15.198Z,87.59
2022-07-25T01:56:48.184Z,87.36
2022-07-25T01:59:15.390Z,88.04
2022-07-25T02:01:42.558Z,87.96
2022-07-25T02:04:10.004Z,88.39
2022-07-25T02:06:37.157Z,88.87
2022-07-25T02:09:04.274Z,88.85
2022-07-25T02:11:31.118Z,88.50
2022-07-25T02:13:58.036Z,88.16
2022-07-25T02:16:28.918Z,88.52
2022-07-25T02:18:56.575Z,88.37
2022-07-25T02:21:23.810Z,88.65
2022-07-25T02:23:50.644Z,88.30
2022-07-25T02:26:17.482Z,88.78
2022-07-25T02:28:44.354Z,88.67
2022-07-25T02:31:11.260Z,89.31
2022-07-25T02:33:38.148Z,88.12
2022-07-25T02:36:05.042Z,87.60
2022-07-25T02:38:31.900Z,89.03
2022-07-25T02:40:58.864Z,88.76
2022-07-25T02:43:25.735Z,90.08
2022-07-25T02:45:52.627Z,89.65
2022-07-25T02:48:19.507Z,89.80
2022-07-25T02:50:46.375Z,89.20
2022-07-25T02:53:13.211Z,90.47
2022-07-25T02:55:40.057Z,89.53
2022-07-25T02:58:06.909Z,90.09
2022-07-25T03:00:33.792Z,89.58
2022-07-25T03:03:00.602Z,88.84
2022-07-25T03:05:27.493Z,89.33
2022-07-25T03:07:54.336Z,90.85
2022-07-25T03:10:21.219Z,91.25
2022-07-25T03:12:48.051Z,90.88
2022-07-25T03:15:14.969Z,91.28
2022-07-25T03:17:42.194Z,92.11
2022-07-25T03:20:09.899Z,91.65
2022-07-25T03:22:36.794Z,91.02
2022-07-25T03:25:03.713Z,91.38
2022-07-25T03:27:30.695Z,91.83
2022-07-25T03:29:57.567Z,91.63
2022-07-25T03:32:24.463Z,91.06
2022-07-25T03:34:51.303Z,91.12
2022-07-25T03:37:18.202Z,91.06
2022-07-25T03:39:45.161Z,91.25
2022-07-25T03:42:12.015Z,90.89
2022-07-25T03:44:38.935Z,91.05
2022-07-25T03:47:05.980Z,91.11
2022-07-25T03:49:32.873Z,91.54
2022-07-25T03:52:00.140Z,90.67
2022-07-25T03:54:27.024Z,90.72
2022-07-25T03:56:53.912Z,91.36
2022-07-25T03:59:21.139Z,90.82
2022-07-25T04:01:49.159Z,91.35
2022-07-25T04:04:16.613Z,91.79
2022-07-25T04:06:43.483Z,91.50
2022-07-25T04:09:11.228Z,91.43
2022-07-25T04:11:38.086Z,91.39
2022-07-25T04:14:05.621Z,91.83
2022-07-25T04:16:32.712Z,91.45
2022-07-25T04:19:00.528Z,91.35
2022-07-25T04:21:28.509Z,91.29
2022-07-25T04:23:55.352Z,90.32
2022-07-25T04:26:22.241Z,90.25
2022-07-25T04:28:49.079Z,89.60
2022-07-25T04:31:16.144Z,87.74
2022-07-25T04:33:43.046Z,87.27
2022-07-25T04:36:10.175Z,87.19
2022-07-25T04:38:37.022Z,86.83
2022-07-25T04:41:04.390Z,86.55
2022-07-25T04:43:31.441Z,85.88
2022-07-25T04:45:58.352Z,84.92
2022-07-25T04:48:25.367Z,84.27
2022-07-25T04:50:52.273Z,83.13
2022-07-25T04:53:19.114Z,81.63
2022-07-25T04:55:45.945Z,80.48
2022-07-25T04:58:12.803Z,80.17
2022-07-25T05:00:39.667Z,79.88
2022-07-25T05:03:06.574Z,79.21
2022-07-25T05:05:33.410Z,78.70
2022-07-25T05:08:00.636Z,77.95
2022-07-25T05:10:28.164Z,76.85
2022-07-25T05:12:55.427Z,76.69
2022-07-25T05:15:22.445Z,76.38
2022-07-25T05:17:49.357Z,75.72
2022-07-25T05:20:16.191Z,75.32
2022-07-25T05:22:43.049Z,74.68
2022-07-25T05:25:10.757Z,74.95
2022-07-25T05:27:38.087Z,74.21
2022-07-25T05:30:05.662Z,73.67
2022-07-25T05:32:32.494Z,73.17
2022-07-25T05:34:59.336Z,71.88
2022-07-25T05:37:26.181Z,72.56
2022-07-25T05:39:53.032Z,72.28
2022-07-25T05:42:19.888Z,72.19
2022-07-25T05:44:46.728Z,72.52
2022-07-25T05:47:13.688Z,71.92
2022-07-25T05:49:40.582Z,72.32
2022-07-25T05:52:12.561Z,70.56
2022-07-25T05:54:39.906Z,70.49
2022-07-25T05:57:07.097Z,70.85
2022-07-25T05:59:33.973Z,69.47
2022-07-25T06:02:01.673Z,68.33
2022-07-25T06:04:28.751Z,68.03
2022-07-25T06:06:55.932Z,67.95
2022-07-25T06:09:23.560Z,67.95
2022-07-25T06:11:58.037Z,67.92
2022-07-25T06:14:27.807Z,67.58
2022-07-25T06:16:55.744Z,67.72
2022-07-25T06:19:22.611Z,67.73
2022-07-25T06:21:49.477Z,67.18
2022-07-25T06:24:16.320Z,66.49
2022-07-25T06:26:43.184Z,65.60
2022-07-25T06:29:10.068Z,65.68
2022-07-25T06:31:37.125Z,64.59
2022-07-25T06:34:04.379Z,63.20
2022-07-25T06:36:32.781Z,62.72
2022-07-25T06:39:00.210Z,61.97
2022-07-25T06:41:27.059Z,62.81
2022-07-25T06:43:53.905Z,61.60
2022-07-25T06:46:20.861Z,61.54
2022-07-25T06:48:47.854Z,61.02
2022-07-25T06:51:14.820Z,59.31
2022-07-25T06:53:41.659Z,60.23
2022-07-25T06:56:08.805Z,57.25
2022-07-25T06:58:35.695Z,57.13
2022-07-25T07:01:02.621Z,58.18
2022-07-25T07:03:29.525Z,56.24
2022-07-25T07:05:56.400Z,55.54
2022-07-25T07:08:23.250Z,55.41
2022-07-25T07:10:50.192Z,55.25
2022-07-25T07:13:20.742Z,55.71
2022-07-25T07:15:51.354Z,54.80
2022-07-25T07:18:20.271Z,54.28
2022-07-25T07:20:47.678Z,54.22
2022-07-25T07:23:14.926Z,53.65
2022-07-25T07:25:43.785Z,53.77
2022-07-25T07:28:11.108Z,52.05
2022-07-25T07:31:13.507Z,51.65
2022-07-25T07:33:24.829Z,51.63
2022-07-25T07:35:51.644Z,51.45
2022-07-25T07:38:18.507Z,51.31
2022-07-25T07:40:45.402Z,51.66
2022-07-25T07:43:12.220Z,51.08
2022-07-25T07:45:39.186Z,51.68
2022-07-25T07:48:06.181Z,50.78
2022-07-25T07:50:33.058Z,50.91
2022-07-25T07:52:59.902Z,50.07
2022-07-25T07:55:26.796Z,49.71
2022-07-25T07:57:53.666Z,48.93
2022-07-25T08:00:20.684Z,48.46
2022-07-25T08:02:52.264Z,48.10
2022-07-25T08:05:45.371Z,48.51
2022-07-25T08:08:15.002Z,48.76
2022-07-25T08:10:43.181Z,48.76
2022-07-25T08:13:13.091Z,47.82
2022-07-25T08:15:40.210Z,46.72
2022-07-25T08:18:17.132Z,45.88
2022-07-25T08:20:48.654Z,46.09
2022-07-25T08:23:15.551Z,46.43
2022-07-25T08:25:43.109Z,46.05
2022-07-25T08:28:10.339Z,44.27
2022-07-25T08:30:37.569Z,44.64
2022-07-25T08:33:06.317Z,44.79
2022-07-25T08:35:33.715Z,45.59
2022-07-25T08:38:01.110Z,45.38
2022-07-25T08:40:28.905Z,45.27
2022-07-25T08:42:55.741Z,44.01
2022-07-25T08:45:22.961Z,44.94
2022-07-25T08:47:50.625Z,44.28
2022-07-25T08:50:21.948Z,43.79
2022-07-25T08:52:49.576Z,42.40
2022-07-25T08:55:18.159Z,42.63
2022-07-25T08:57:45.141Z,42.40
2022-07-25T09:00:13.022Z,42.63
2022-07-25T09:02:39.893Z,43.23
2022-07-25T09:05:07.194Z,42.23
2022-07-25T09:07:40.965Z,42.35
2022-07-25T09:10:11.869Z,41.63
2022-07-25T09:12:39.561Z,40.90
2022-07-25T09:15:06.889Z,40.25
2022-07-25T09:17:35.986Z,40.99
2022-07-25T09:20:02.845Z,41.85
2022-07-25T09:22:29.670Z,42.87
2022-07-25T09:24:56.532Z,41.93
2022-07-25T09:27:23.368Z,42.10
2022-07-25T09:29:50.200Z,41.14
2022-07-25T09:32:18.587Z,40.95
2022-07-25T09:34:46.856Z,39.95
2022-07-25T09:37:17.896Z,40.84
2022-07-25T09:39:48.834Z,39.25
2022-07-25T09:42:16.777Z,39.41
2022-07-25T09:44:43.724Z,39.45
2022-07-25T09:47:14.426Z,39.84
2022-07-25T09:49:42.042Z,40.62
2022-07-25T09:52:09.324Z,40.19
2022-07-25T09:54:36.297Z,39.80
2022-07-25T09:57:12.196Z,40.00
2022-07-25T09:59:39.077Z,40.94
2022-07-25T10:02:11.015Z,39.41
2022-07-25T10:04:37.872Z,39.41
2022-07-25T10:07:08.883Z,38.80
2022-07-25T10:09:43.817Z,39.07
2022-07-25T10:12:11.607Z,38.79
2022-07-25T10:14:39.110Z,39.01
2022-07-25T10:17:06.162Z,38.98
2022-07-25T10:19:49.940Z,38.20
2022-07-25T10:22:34.272Z,37.02
2022-07-25T10:25:13.540Z,38.90
2022-07-25T10:27:44.469Z,39.31
2022-07-25T10:30:19.897Z,38.36
2022-07-25T10:32:50.283Z,38.36
2022-07-25T10:35:17.261Z,38.36
2022-07-25T10:37:49.016Z,38.50
2022-07-25T10:40:29.636Z,38.35
2022-07-25T10:43:00.641Z,36.79
2022-07-25T10:45:38.230Z,36.95
2022-07-25T10:48:13.328Z,36.62
2022-07-25T10:50:57.551Z,36.28
2022-07-25T10:53:31.045Z,35.98
2022-07-25T10:56:05.646Z,36.27
2022-07-25T10:58:50.526Z,35.26
2022-07-25T11:01:22.265Z,35.62
2022-07-25T11:03:49.687Z,35.17
2022-07-25T11:06:17.588Z,35.61
2022-07-25T11:08:44.560Z,36.32
2022-07-25T11:11:12.172Z,36.85
2022-07-25T11:13:42.289Z,35.89
2022-07-25T11:16:09.709Z,34.80
2022-07-25T11:18:38.387Z,35.74
2022-07-25T11:21:06.950Z,36.47
2022-07-25T11:23:34.759Z,35.82
2022-07-25T11:26:05.762Z,35.36
2022-07-25T11:28:42.898Z,35.62
2022-07-25T11:31:10.238Z,36.33
2022-07-25T11:33:38.751Z,35.27
2022-07-25T11:36:06.300Z,35.72
2022-07-25T11:38:33.622Z,35.80
2022-07-25T11:41:00.537Z,34.91
2022-07-25T11:43:27.358Z,35.54
2022-07-25T11:46:04.569Z,34.44
2022-07-25T11:48:40.520Z,35.06
2022-07-25T11:51:18.376Z,34.68
2022-07-25T11:53:49.319Z,33.89
2022-07-25T11:56:41.792Z,34.86
2022-07-25T11:59:09.806Z,33.76
2022-07-25T12:01:38.126Z,33.73
2022-07-25T12:04:14.060Z,34.15
2022-07-25T12:06:41.900Z,34.34
2022-07-25T12:09:22.073Z,34.25
2022-07-25T12:11:49.134Z,34.60
2022-07-25T12:14:16.117Z,35.40
2022-07-25T12:16:43.130Z,34.55
2022-07-25T12:19:17.451Z,34.10
2022-07-25T12:21:44.476Z,34.15
2022-07-25T12:24:11.298Z,33.53
2022-07-25T12:26:38.212Z,33.98
2022-07-25T12:29:05.355Z,34.90
2022-07-25T12:31:32.802Z,33.45
2022-07-25T12:33:59.780Z,33.72
2022-07-25T12:36:26.659Z,34.37
2022-07-25T12:38:53.518Z,33.46
2022-07-25T12:41:20.330Z,33.95
2022-07-25T12:43:47.163Z,34.99
2022-07-25T12:46:14.029Z,34.07
2022-07-25T12:48:40.989Z,34.90
2022-07-25T12:51:07.854Z,36.24
2022-07-25T12:53:37.806Z,35.96
2022-07-25T12:56:07.223Z,34.86
2022-07-25T12:58:34.065Z,34.50
2022-07-25T13:01:03.416Z,35.33
2022-07-25T13:03:30.584Z,35.39
2022-07-25T13:05:57.442Z,35.78
2022-07-25T13:08:24.447Z,36.11
2022-07-25T13:10:51.278Z,36.18
2022-07-25T13:13:18.120Z,34.87
2022-07-25T13:15:44.961Z,34.58
2022-07-25T13:18:11.823Z,34.25
2022-07-25T13:20:38.688Z,34.05
2022-07-25T13:23:05.524Z,33.72
2022-07-25T13:25:32.628Z,34.66
2022-07-25T13:27:59.597Z,35.84
2022-07-25T13:30:26.447Z,35.22
2022-07-25T13:32:53.679Z,35.73
2022-07-25T13:35:21.918Z,36.08
2022-07-25T13:37:50.210Z,36.01
2022-07-25T13:40:17.092Z,37.67
2022-07-25T13:42:43.926Z,36.98
2022-07-25T13:45:10.841Z,37.01
2022-07-25T13:47:38.370Z,37.39
2022-07-25T13:50:05.474Z,37.34
2022-07-25T13:52:32.326Z,37.13
2022-07-25T13:54:59.173Z,36.82
2022-07-25T13:57:26.017Z,35.86
2022-07-25T13:59:52.855Z,37.64
2022-07-25T14:02:19.738Z,36.04
2022-07-25T14:04:46.615Z,36.17
2022-07-25T14:07:13.640Z,35.66
2022-07-25T14:09:40.502Z,36.40
2022-07-25T14:12:07.381Z,36.78
2022-07-25T14:14:34.223Z,35.73
2022-07-25T14:17:01.127Z,36.49
2022-07-25T14:19:28.028Z,36.51
2022-07-25T14:21:54.886Z,37.26
2022-07-25T14:24:21.707Z,38.04
2022-07-25T14:26:48.550Z,38.50
2022-07-25T14:29:15.447Z,38.41
2022-07-25T14:31:42.376Z,38.62
2022-07-25T14:34:09.324Z,39.32
2022-07-25T14:36:36.183Z,40.21
2022-07-25T14:39:04.503Z,40.18
2022-07-25T14:41:31.734Z,40.88
2022-07-25T14:43:58.956Z,40.63
2022-07-25T14:46:25.916Z,41.04
2022-07-25T14:48:52.809Z,41.59
2022-07-25T14:51:20.151Z,42.42
2022-07-25T14:53:52.773Z,42.09
2022-07-25T14:56:20.110Z,41.93
2022-07-25T14:58:47.014Z,42.63
2022-07-25T15:01:13.914Z,42.37
2022-07-25T15:03:41.138Z,42.09
2022-07-25T15:06:08.005Z,41.45
2022-07-25T15:08:34.836Z,41.66
2022-07-25T15:11:01.677Z,41.36
2022-07-25T15:13:31.377Z,41.14
2022-07-25T15:15:58.947Z,39.99
2022-07-25T15:18:25.897Z,40.44
2022-07-25T15:20:52.801Z,38.24
2022-07-25T15:23:19.660Z,38.30
2022-07-25T15:26:03.804Z,37.51
2022-07-25T15:28:32.751Z,37.63
2022-07-25T15:30:59.952Z,38.12
2022-07-25T15:33:26.878Z,36.90
2022-07-25T15:35:54.417Z,37.65
2022-07-25T15:38:21.629Z,37.07
2022-07-25T15:40:48.687Z,39.18
2022-07-25T15:43:15.570Z,37.31
2022-07-25T15:45:43.692Z,37.11
2022-07-25T15:48:11.772Z,36.35
2022-07-25T15:50:41.729Z,37.52
2022-07-25T15:53:09.011Z,36.81
2022-07-25T15:55:36.859Z,36.90
2022-07-25T15:58:03.793Z,36.35
2022-07-25T16:00:36.746Z,35.57
2022-07-25T16:03:03.879Z,35.55
2022-07-25T16:05:30.739Z,36.04
2022-07-25T16:08:01.552Z,34.99
2022-07-25T16:10:29.207Z,35.03
2022-07-25T16:12:56.097Z,35.75
2022-07-25T16:15:22.979Z,36.90
2022-07-25T16:17:50.003Z,37.29
2022-07-25T16:20:16.998Z,37.78
2022-07-25T16:22:43.867Z,38.82
2022-07-25T16:25:10.698Z,38.44
2022-07-25T16:27:37.767Z,39.72
2022-07-25T16:30:05.029Z,39.83
2022-07-25T16:32:31.867Z,40.49
2022-07-25T16:34:58.698Z,41.03
2022-07-25T16:37:25.540Z,43.20
2022-07-25T16:39:52.516Z,41.77
2022-07-25T16:42:19.516Z,42.24
2022-07-25T16:44:46.336Z,42.66
2022-07-25T16:47:13.276Z,42.12
2022-07-25T16:49:40.151Z,42.68
2022-07-25T16:52:07.037Z,43.54
2022-07-25T16:54:33.882Z,48.71
2022-07-25T16:57:00.806Z,49.81
2022-07-25T16:59:27.764Z,53.00
2022-07-25T17:01:54.633Z,55.62
2022-07-25T17:04:21.642Z,54.98
2022-07-25T17:06:48.551Z,56.40
2022-07-25T17:09:15.451Z,58.59
2022-07-25T17:11:42.373Z,56.48
2022-07-25T17:14:09.241Z,54.58
2022-07-25T17:16:36.140Z,56.12
2022-07-25T17:19:03.311Z,55.79
2022-07-25T17:21:30.169Z,55.42
2022-07-25T17:23:57.110Z,58.20
2022-07-25T17:26:24.007Z,55.83
2022-07-25T17:28:50.851Z,58.05
2022-07-25T17:31:17.730Z,54.39
2022-07-25T17:33:44.605Z,55.45
2022-07-25T17:36:11.484Z,53.92
2022-07-25T17:38:38.348Z,50.86
2022-07-25T17:41:05.347Z,50.97
2022-07-25T17:43:32.181Z,50.65
2022-07-25T17:45:59.039Z,51.68
2022-07-25T17:48:26.046Z,51.62
2022-07-25T17:50:53.004Z,51.40
2022-07-25T17:53:19.883Z,52.22
2022-07-25T17:55:46.716Z,51.87
2022-07-25T17:58:13.999Z,52.62
2022-07-25T18:00:43.666Z,52.26
2022-07-25T18:03:10.632Z,52.28
2022-07-25T18:05:37.590Z,52.50
2022-07-25T18:08:04.623Z,52.99
2022-07-25T18:10:31.481Z,52.58
2022-07-25T18:12:58.388Z,53.95
2022-07-25T18:15:25.305Z,53.79
2022-07-25T18:17:52.195Z,54.33
2022-07-25T18:20:19.041Z,54.46
2022-07-25T18:22:45.916Z,54.50
2022-07-25T18:25:13.408Z,54.15
2022-07-25T18:27:43.909Z,54.59
2022-07-25T18:30:11.132Z,54.48
2022-07-25T18:32:38.494Z,54.85
2022-07-25T18:35:05.663Z,55.74
2022-07-25T18:37:32.540Z,55.24
2022-07-25T18:39:59.527Z,56.24
2022-07-25T18:42:29.891Z,56.12
2022-07-25T18:44:57.185Z,56.48
2022-07-25T18:47:24.229Z,57.04
2022-07-25T18:49:53.125Z,57.16
2022-07-25T18:52:20.680Z,57.13
2022-07-25T18:54:47.645Z,58.04
2022-07-25T18:57:14.878Z,58.10
2022-07-25T18:59:42.034Z,57.77
2022-07-25T19:02:08.983Z,57.76
2022-07-25T19:04:36.864Z,58.07
2022-07-25T19:07:03.709Z,57.86
2022-07-25T19:09:30.564Z,58.08
2022-07-25T19:11:57.455Z,58.10
2022-07-25T19:14:24.318Z,58.12
2022-07-25T19:16:52.713Z,58.74
2022-07-25T19:19:19.573Z,58.89
2022-07-25T19:21:46.431Z,58.98
2022-07-25T19:24:13.328Z,59.14
2022-07-25T19:26:41.350Z,59.56
2022-07-25T19:29:09.026Z,60.09
2022-07-25T19:31:36.472Z,59.81
2022-07-25T19:34:03.928Z,60.06
2022-07-25T19:36:31.087Z,60.07
2022-07-25T19:38:57.933Z,59.48
2022-07-25T19:41:24.811Z,59.38
2022-07-25T19:43:52.353Z,59.35
2022-07-25T19:46:19.315Z,59.02
2022-07-25T19:48:46.311Z,59.35
2022-07-25T19:51:13.249Z,59.33
2022-07-25T19:53:40.107Z,58.99
2022-07-25T19:56:07.045Z,59.00
2022-07-25T19:58:38.392Z,59.10
2022-07-25T20:01:05.923Z,59.25
2022-07-25T20:03:32.783Z,59.12
2022-07-25T20:06:02.357Z,59.20
2022-07-25T20:08:31.532Z,59.73
2022-07-25T20:10:58.481Z,59.92
2022-07-25T20:13:25.374Z,60.53
2022-07-25T20:15:52.202Z,60.38
2022-07-25T20:18:19.809Z,60.45
2022-07-25T20:20:46.842Z,60.80
2022-07-25T20:23:13.707Z,61.18
2022-07-25T20:25:40.528Z,60.99
2022-07-25T20:28:07.368Z,61.24
2022-07-25T20:30:35.081Z,61.77
2022-07-25T20:33:05.293Z,62.07
2022-07-25T20:35:36.329Z,62.11
2022-07-25T20:38:03.253Z,62.02
2022-07-25T20:40:36.838Z,62.10
2022-07-25T20:43:07.545Z,61.84
2022-07-25T20:45:34.360Z,61.49
2022-07-25T20:48:01.307Z,62.03
2022-07-25T20:50:28.155Z,61.84
2022-07-25T20:52:54.990Z,62.02
2022-07-25T20:55:21.878Z,62.85
2022-07-25T20:57:58.772Z,62.70
2022-07-25T21:00:26.313Z,63.02
2022-07-25T21:02:53.720Z,63.16
2022-07-25T21:05:21.031Z,63.43
2022-07-25T21:07:48.022Z,63.68
2022-07-25T21:10:14.893Z,64.10
2022-07-25T21:12:41.840Z,64.35
2022-07-25T21:15:08.853Z,64.32
2022-07-25T21:17:35.695Z,64.54
2022-07-25T21:20:03.063Z,64.53
2022-07-25T21:22:29.988Z,65.17
2022-07-25T21:24:56.864Z,65.14
2022-07-25T21:27:23.721Z,65.11
2022-07-25T21:29:50.586Z,65.94
2022-07-25T21:32:18.042Z,65.33
2022-07-25T21:34:45.131Z,65.07
2022-07-25T21:37:12.882Z,65.10
2022-07-25T21:39:39.699Z,65.28
2022-07-25T21:42:06.650Z,65.72
2022-07-25T21:44:33.492Z,65.44
2022-07-25T21:47:00.313Z,65.48
2022-07-25T21:49:41.360Z,66.12
2022-07-25T21:52:09.128Z,65.67
2022-07-25T21:54:44.247Z,65.68
2022-07-25T21:57:13.596Z,65.08
2022-07-25T21:59:44.794Z,64.98
2022-07-25T22:02:12.003Z,64.92
2022-07-25T22:04:39.035Z,65.21
2022-07-25T22:07:06.051Z,65.49
2022-07-25T22:09:32.937Z,64.95
2022-07-25T22:11:59.837Z,64.60
2022-07-25T22:14:26.764Z,64.72
2022-07-25T22:16:53.696Z,64.90
2022-07-25T22:19:22.452Z,65.16
2022-07-25T22:21:50.138Z,64.99
2022-07-25T22:24:17.025Z,65.39
2022-07-25T22:26:44.034Z,65.17
2022-07-25T22:29:11.669Z,65.11
2022-07-25T22:31:39.072Z,66.03
2022-07-25T22:34:06.599Z,65.19
2022-07-25T22:36:33.617Z,65.60
2022-07-25T22:39:00.460Z,65.78
2022-07-25T22:41:27.306Z,65.92
2022-07-25T22:43:59.140Z,66.12
2022-07-25T22:46:30.248Z,65.86
2022-07-25T22:48:57.945Z,65.82
2022-07-25T22:51:24.854Z,65.60
2022-07-25T22:53:52.040Z,65.59
2022-07-25T22:56:18.974Z,65.84
2022-07-25T22:58:49.143Z,65.96
2022-07-25T23:01:17.044Z,66.14
2022-07-25T23:03:44.117Z,65.62
2022-07-25T23:06:11.096Z,65.69
2022-07-25T23:08:37.914Z,65.67
2022-07-25T23:11:04.773Z,65.31
2022-07-25T23:13:32.206Z,65.40
2022-07-25T23:16:00.060Z,65.31
2022-07-25T23:18:26.949Z,65.63
2022-07-25T23:20:53.764Z,65.65
2022-07-25T23:23:20.597Z,65.36
2022-07-25T23:25:47.791Z,66.07
2022-07-25T23:28:14.771Z,66.40
2022-07-25T23:30:41.613Z,67.06
2022-07-25T23:33:08.525Z,67.52
2022-07-25T23:35:35.397Z,67.85
2022-07-25T23:38:02.427Z,68.20
2022-07-25T23:40:29.786Z,68.34
2022-07-25T23:42:56.640Z,68.61
2022-07-25T23:45:28.052Z,69.59
2022-07-25T23:47:55.957Z,69.35
2022-07-25T23:50:23.190Z,70.34
2022-07-25T23:52:50.631Z,70.49
2022-07-25T23:55:17.464Z,70.59
2022-07-25T23:57:44.325Z,71.74
